Time;durP1;ratioP1;P1;durP2;ratioP2;P2;SDS_P1;SDS_P2;PMS_P1;PMS_P2;Temp;Humidity;BMP_temperature;BMP_pressure;BME280_temperature;BME280_humidity;BME280_pressure;Samples;Min_cycle;Max_cycle;Signal;HPM_P1;HPM_P2
2023/05/11 00:01:20;;;;;;;8.68;7.78;;;13.60;81.10;;;;;;5020767;28;20041;-67
2023/05/11 00:03:46;;;;;;;8.85;7.97;;;13.60;81.20;;;;;;5029624;28;20094;-67
2023/05/11 00:06:12;;;;;;;9.10;7.38;;;13.60;81.30;;;;;;5020107;28;20156;-67
2023/05/11 00:08:38;;;;;;;8.88;7.93;;;13.60;81.30;;;;;;5037682;28;20132;-67
2023/05/11 00:11:07;;;;;;;9.13;7.97;;;13.60;81.40;;;;;;5021009;28;20239;-67
2023/05/11 00:13:33;;;;;;;11.60;10.07;;;13.60;81.40;;;;;;5037654;28;20041;-67
2023/05/11 00:15:58;;;;;;;8.35;7.35;;;13.60;81.50;;;;;;5036651;28;20052;-67
2023/05/11 00:18:24;;;;;;;10.05;9.05;;;13.60;81.60;;;;;;5037142;28;20046;-67
2023/05/11 00:20:50;;;;;;;11.95;10.30;;;13.60;81.60;;;;;;5001654;28;20417;-67
2023/05/11 00:23:16;;;;;;;13.85;10.88;;;13.70;81.80;;;;;;5001766;28;20133;-67
2023/05/11 00:25:41;;;;;;;9.43;8.27;;;13.60;81.80;;;;;;5017861;28;20137;-67
2023/05/11 00:28:09;;;;;;;10.13;8.48;;;13.60;81.80;;;;;;5021449;28;20048;-67
2023/05/11 00:30:34;;;;;;;11.48;10.00;;;13.60;81.80;;;;;;5025583;28;20037;-67
2023/05/11 00:33:00;;;;;;;10.90;9.65;;;13.60;81.90;;;;;;5037845;28;20045;-67
2023/05/11 00:35:26;;;;;;;9.88;8.45;;;13.60;81.90;;;;;;5037476;28;20512;-67
2023/05/11 00:37:51;;;;;;;10.48;9.38;;;13.70;82.00;;;;;;5036660;28;20055;-67
2023/05/11 00:40:17;;;;;;;11.80;10.60;;;13.60;82.00;;;;;;5032884;28;20065;-67
2023/05/11 00:42:43;;;;;;;11.75;10.50;;;13.60;82.10;;;;;;5017908;28;20497;-67
2023/05/11 00:45:10;;;;;;;11.40;8.77;;;13.70;82.20;;;;;;5029455;28;20060;-67
2023/05/11 00:47:36;;;;;;;12.60;9.63;;;13.60;82.10;;;;;;5025818;28;20370;-67
2023/05/11 00:50:02;;;;;;;12.02;10.50;;;13.60;82.20;;;;;;5003330;28;20049;-67
2023/05/11 00:52:28;;;;;;;11.95;10.75;;;13.70;82.20;;;;;;5036871;28;20042;-67
2023/05/11 00:54:54;;;;;;;11.35;10.00;;;13.60;82.10;;;;;;5037577;28;20120;-67
2023/05/11 00:57:20;;;;;;;10.00;9.00;;;13.60;82.20;;;;;;5035428;28;20120;-67
2023/05/11 00:59:48;;;;;;;10.65;8.93;;;13.70;82.30;;;;;;5020251;28;20481;-67
2023/05/11 01:02:16;;;;;;;9.65;8.65;;;13.60;82.20;;;;;;5033648;28;20045;-67
2023/05/11 01:04:42;;;;;;;8.43;7.63;;;13.60;82.30;;;;;;5037579;28;20045;-67
2023/05/11 01:07:24;;;;;;;8.57;7.35;;;13.60;82.30;;;;;;5020571;28;20045;-67
2023/05/11 01:10:00;;;;;;;7.70;6.90;;;13.60;82.30;;;;;;5033524;28;20520;-67
2023/05/11 01:12:32;;;;;;;6.97;6.28;;;13.60;82.70;;;;;;5021025;28;20053;-67
2023/05/11 01:15:15;;;;;;;8.15;7.20;;;13.60;82.30;;;;;;5034384;28;20038;-67
2023/05/11 01:18:07;;;;;;;11.88;8.50;;;13.60;82.30;;;;;;5033667;28;20045;-67
2023/05/11 01:20:33;;;;;;;9.02;7.68;;;13.60;82.20;;;;;;5009344;28;20042;-67
2023/05/11 01:23:18;;;;;;;9.30;7.88;;;13.60;82.20;;;;;;5014310;28;20130;-67
2023/05/11 01:26:07;;;;;;;9.40;7.95;;;13.60;82.20;;;;;;5015410;28;20045;-67
2023/05/11 01:29:11;;;;;;;9.13;6.38;;;13.60;82.20;;;;;;5014588;28;20046;-67
2023/05/11 01:31:41;;;;;;;10.98;9.82;;;13.60;82.10;;;;;;5028299;28;20076;-67
2023/05/11 01:34:21;;;;;;;7.82;7.03;;;13.60;82.10;;;;;;5033933;28;20045;-67
2023/05/11 01:37:10;;;;;;;6.40;5.57;;;13.60;82.10;;;;;;5027338;28;20034;-67
2023/05/11 01:39:41;;;;;;;6.72;5.60;;;13.60;81.80;;;;;;5014308;28;20384;-67
2023/05/11 01:42:10;;;;;;;8.23;6.63;;;13.60;81.90;;;;;;5028398;28;20433;-67
2023/05/11 01:44:41;;;;;;;7.00;6.30;;;13.70;81.90;;;;;;5014244;28;20037;-67
2023/05/11 01:47:08;;;;;;;7.75;6.95;;;13.60;81.70;;;;;;5004362;28;20069;-68
2023/05/11 01:49:37;;;;;;;6.80;6.07;;;13.60;81.60;;;;;;5033721;28;20048;-67
2023/05/11 01:52:06;;;;;;;7.63;6.35;;;13.70;81.60;;;;;;5014208;28;20033;-67
2023/05/11 01:54:34;;;;;;;8.60;7.63;;;13.70;81.50;;;;;;5033265;28;20552;-67
2023/05/11 01:57:01;;;;;;;8.80;7.40;;;13.70;81.40;;;;;;5025766;28;20042;-67
2023/05/11 01:59:28;;;;;;;11.70;9.52;;;13.70;81.30;;;;;;5025943;28;20057;-67
2023/05/11 02:01:55;;;;;;;10.77;9.68;;;13.70;81.30;;;;;;5018674;28;20089;-67
2023/05/11 02:04:22;;;;;;;10.60;8.90;;;13.70;81.40;;;;;;5026742;28;20053;-67
2023/05/11 02:06:48;;;;;;;7.93;7.10;;;13.70;81.50;;;;;;5015329;28;20081;-67
2023/05/11 02:09:18;;;;;;;9.57;8.55;;;13.70;81.40;;;;;;5013491;28;20516;-67
2023/05/11 02:11:48;;;;;;;10.27;8.07;;;13.70;81.40;;;;;;5010483;28;20488;-67
2023/05/11 02:14:16;;;;;;;8.13;6.95;;;13.70;81.30;;;;;;5021309;28;20083;-67
2023/05/11 02:16:43;;;;;;;11.45;9.20;;;13.70;81.30;;;;;;5023488;28;20370;-67
2023/05/11 02:19:11;;;;;;;9.73;8.70;;;13.70;81.30;;;;;;5011297;28;20037;-67
2023/05/11 02:21:38;;;;;;;8.45;7.38;;;13.70;81.30;;;;;;5032480;28;20497;-67
2023/05/11 02:24:06;;;;;;;9.27;8.23;;;13.70;81.30;;;;;;5022536;28;20492;-67
2023/05/11 02:26:33;;;;;;;7.35;6.55;;;13.70;81.30;;;;;;5032609;28;20052;-67
2023/05/11 02:28:59;;;;;;;7.10;6.35;;;13.70;81.30;;;;;;5012773;28;20056;-67
2023/05/11 02:31:28;;;;;;;6.22;5.63;;;13.70;81.20;;;;;;5013343;28;20133;-67
2023/05/11 02:34:03;;;;;;;9.60;8.60;;;13.70;81.20;;;;;;5023028;28;20053;-67
2023/05/11 02:36:32;;;;;;;11.57;9.75;;;13.70;81.10;;;;;;5012968;28;20037;-67
2023/05/11 02:39:08;;;;;;;10.50;9.18;;;13.70;81.20;;;;;;5029251;28;20037;-67
2023/05/11 02:41:40;;;;;;;10.52;8.73;;;13.70;81.10;;;;;;5032682;28;20072;-66
2023/05/11 02:44:11;;;;;;;11.15;9.70;;;13.70;81.20;;;;;;5021881;28;20113;-67
2023/05/11 02:46:38;;;;;;;13.00;10.73;;;13.70;81.20;;;;;;5016241;28;20041;-66
2023/05/11 02:49:08;;;;;;;12.57;10.65;;;13.70;81.30;;;;;;5025778;28;20120;-66
2023/05/11 02:51:40;;;;;;;11.52;10.20;;;13.70;81.40;;;;;;5032242;28;20049;-66
2023/05/11 02:54:09;;;;;;;12.05;10.75;;;13.70;81.60;;;;;;5032113;28;20046;-70
2023/05/11 02:56:36;;;;;;;10.68;9.57;;;13.60;81.60;;;;;;5032271;28;20045;-70
2023/05/11 02:59:02;;;;;;;12.77;10.63;;;13.60;81.70;;;;;;5015640;28;20105;-70
2023/05/11 03:01:28;;;;;;;13.35;11.18;;;13.60;81.70;;;;;;5012722;28;20128;-69
2023/05/11 03:03:54;;;;;;;13.82;10.95;;;13.60;81.80;;;;;;5030440;28;20504;-70
2023/05/11 03:06:20;;;;;;;13.75;11.73;;;13.60;81.80;;;;;;5031086;28;20124;-70
2023/05/11 03:08:46;;;;;;;14.85;12.57;;;13.60;81.90;;;;;;5017738;28;20156;-70
2023/05/11 03:11:14;;;;;;;9.13;7.85;;;13.50;81.90;;;;;;5022746;28;20401;-69
2023/05/11 03:13:44;;;;;;;14.98;12.18;;;13.50;82.00;;;;;;5018794;28;20398;-70
2023/05/11 03:16:14;;;;;;;15.15;12.70;;;13.50;82.10;;;;;;5013417;28;20052;-69
2023/05/11 03:18:40;;;;;;;16.52;13.32;;;13.50;82.10;;;;;;5013025;28;20042;-69
2023/05/11 03:21:06;;;;;;;12.75;10.60;;;13.50;82.10;;;;;;5003559;28;20040;-69
2023/05/11 03:23:35;;;;;;;13.15;10.60;;;13.50;82.20;;;;;;5032106;28;20045;-69
2023/05/11 03:26:01;;;;;;;12.57;9.68;;;13.50;82.30;;;;;;5027351;28;20127;-70
2023/05/11 03:28:28;;;;;;;13.38;10.40;;;13.50;82.20;;;;;;5031475;28;20053;-70
2023/05/11 03:30:54;;;;;;;10.80;9.60;;;13.50;82.30;;;;;;5008482;28;20049;-71
2023/05/11 03:33:20;;;;;;;13.77;10.18;;;13.50;82.30;;;;;;4995840;28;20044;-69
2023/05/11 03:35:48;;;;;;;16.55;14.13;;;13.50;82.30;;;;;;5012676;28;20116;-69
2023/05/11 03:38:15;;;;;;;15.77;13.75;;;13.50;82.30;;;;;;5031524;28;20048;-71
2023/05/11 03:40:42;;;;;;;19.27;13.60;;;13.50;82.80;;;;;;5031890;28;20124;-70
2023/05/11 03:43:11;;;;;;;17.17;14.48;;;13.50;82.40;;;;;;5011115;28;20060;-70
2023/05/11 03:45:37;;;;;;;20.55;15.70;;;13.50;82.50;;;;;;5030659;28;20481;-70
2023/05/11 03:48:05;;;;;;;19.35;15.23;;;13.40;82.50;;;;;;5013539;28;20041;-70
2023/05/11 03:50:32;;;;;;;19.95;15.40;;;13.40;82.60;;;;;;5012552;28;20052;-70
2023/05/11 03:52:59;;;;;;;20.50;15.43;;;13.40;82.70;;;;;;5011882;28;20084;-70
2023/05/11 03:55:25;;;;;;;18.75;14.25;;;13.40;82.70;;;;;;4996080;28;20033;-70
2023/05/11 03:57:51;;;;;;;19.65;14.98;;;13.40;82.80;;;;;;5017974;28;20038;-70
2023/05/11 04:00:17;;;;;;;17.77;13.85;;;13.40;83.00;;;;;;5013420;28;20093;-70
2023/05/11 04:02:43;;;;;;;20.42;15.93;;;13.40;83.00;;;;;;5025979;28;20060;-70
2023/05/11 04:05:10;;;;;;;20.73;14.40;;;13.30;83.10;;;;;;5011883;28;20057;-71
2023/05/11 04:07:37;;;;;;;17.00;13.68;;;13.40;83.30;;;;;;5026963;28;20501;-70
2023/05/11 04:10:04;;;;;;;22.02;15.63;;;13.30;83.70;;;;;;5031600;28;20135;-70
2023/05/11 04:12:30;;;;;;;17.42;14.57;;;13.30;83.30;;;;;;5015021;28;20639;-70
2023/05/11 04:14:56;;;;;;;21.65;16.17;;;13.30;83.40;;;;;;5015412;28;20049;-70
2023/05/11 04:17:22;;;;;;;22.30;15.05;;;13.30;83.50;;;;;;5021163;28;20398;-70
2023/05/11 04:19:47;;;;;;;17.52;13.68;;;13.30;83.50;;;;;;5011871;28;20073;-70
2023/05/11 04:22:13;;;;;;;17.95;15.00;;;13.30;83.60;;;;;;5015722;28;20454;-70
2023/05/11 04:24:39;;;;;;;16.80;13.35;;;13.30;83.50;;;;;;5030672;28;20060;-70
2023/05/11 04:27:04;;;;;;;19.80;15.30;;;13.30;83.60;;;;;;5030016;28;20488;-70
2023/05/11 04:29:30;;;;;;;21.20;16.05;;;13.30;83.60;;;;;;5025332;28;20041;-70
2023/05/11 04:31:56;;;;;;;17.60;14.30;;;13.30;83.60;;;;;;5013277;28;20507;-70
2023/05/11 04:34:22;;;;;;;22.52;16.15;;;13.30;83.70;;;;;;5009314;28;20045;-71
2023/05/11 04:36:48;;;;;;;20.33;15.07;;;13.20;83.70;;;;;;5027198;28;20493;-71
2023/05/11 04:39:15;;;;;;;22.25;16.95;;;13.20;83.70;;;;;;5031283;28;20056;-70
2023/05/11 04:41:44;;;;;;;19.90;14.75;;;13.20;83.70;;;;;;4995689;28;20358;-69
2023/05/11 04:44:11;;;;;;;20.73;15.95;;;13.20;83.80;;;;;;4997349;28;20128;-69
2023/05/11 04:46:40;;;;;;;21.70;16.70;;;13.20;83.70;;;;;;5020802;28;20037;-70
2023/05/11 04:49:05;;;;;;;19.13;14.80;;;13.20;83.80;;;;;;5028086;28;20045;-70
2023/05/11 04:51:31;;;;;;;23.83;17.50;;;13.20;83.90;;;;;;5017656;28;20041;-70
2023/05/11 04:53:57;;;;;;;22.30;16.92;;;13.20;83.90;;;;;;5018041;28;20053;-69
2023/05/11 04:56:23;;;;;;;14.93;12.30;;;13.20;83.90;;;;;;5031063;28;20470;-69
2023/05/11 04:58:49;;;;;;;18.83;14.70;;;13.20;84.10;;;;;;5029111;28;20117;-71
2023/05/11 05:01:14;;;;;;;18.88;12.77;;;13.20;84.10;;;;;;5025361;28;20551;-70
2023/05/11 05:03:40;;;;;;;15.82;13.50;;;13.20;84.10;;;;;;5018118;28;20488;-70
2023/05/11 05:06:06;;;;;;;18.80;15.45;;;13.20;84.00;;;;;;5031218;28;20169;-69
2023/05/11 05:08:32;;;;;;;18.58;14.68;;;13.20;84.00;;;;;;5022314;28;20041;-71
2023/05/11 05:10:57;;;;;;;16.90;13.15;;;13.20;84.00;;;;;;5034226;28;20041;-70
2023/05/11 05:13:23;;;;;;;15.18;12.65;;;13.20;84.00;;;;;;5034355;28;20048;-71
2023/05/11 05:15:49;;;;;;;17.25;13.35;;;13.20;84.10;;;;;;5033079;28;20190;-71
2023/05/11 05:18:15;;;;;;;19.00;14.32;;;13.30;84.20;;;;;;5017145;28;20046;-71
2023/05/11 05:20:40;;;;;;;15.80;12.95;;;13.30;84.10;;;;;;5014780;28;20396;-70
2023/05/11 05:23:06;;;;;;;18.10;13.90;;;13.30;84.00;;;;;;5022570;28;20054;-70
2023/05/11 05:25:32;;;;;;;15.02;11.63;;;13.30;84.00;;;;;;5016563;28;20061;-69
2023/05/11 05:27:57;;;;;;;18.50;13.93;;;13.30;84.00;;;;;;5016627;28;20049;-71
2023/05/11 05:30:23;;;;;;;14.15;11.75;;;13.30;84.00;;;;;;5032043;28;20096;-71
2023/05/11 05:32:49;;;;;;;16.02;11.63;;;13.40;84.10;;;;;;4998106;28;20446;-69
2023/05/11 05:35:15;;;;;;;15.75;12.43;;;13.30;83.90;;;;;;5014326;28;20050;-69
2023/05/11 05:37:41;;;;;;;15.15;11.52;;;13.30;83.90;;;;;;5031018;28;20119;-70
2023/05/11 05:40:07;;;;;;;13.30;11.90;;;13.30;83.90;;;;;;5033405;28;20037;-70
2023/05/11 05:42:32;;;;;;;14.27;11.23;;;13.40;83.90;;;;;;5014504;28;20048;-70
2023/05/11 05:44:58;;;;;;;15.85;12.23;;;13.40;83.90;;;;;;4998316;28;20053;-71
2023/05/11 05:47:24;;;;;;;13.90;11.88;;;13.40;83.80;;;;;;5014490;28;20041;-70
2023/05/11 05:49:50;;;;;;;12.80;10.40;;;13.40;83.70;;;;;;5025878;28;20506;-71
2023/05/11 05:52:15;;;;;;;13.13;10.38;;;13.40;83.70;;;;;;5023813;28;21241;-69
2023/05/11 05:54:41;;;;;;;12.70;10.80;;;13.40;83.60;;;;;;5023412;28;20040;-69
2023/05/11 05:57:07;;;;;;;11.80;9.40;;;13.40;83.50;;;;;;5020397;28;20038;-70
2023/05/11 05:59:33;;;;;;;14.80;10.68;;;13.40;83.50;;;;;;5017776;28;20042;-70
2023/05/11 06:01:59;;;;;;;12.30;9.45;;;13.40;83.40;;;;;;5040090;28;20037;-70
2023/05/11 06:04:24;;;;;;;12.98;10.70;;;13.50;83.40;;;;;;5014869;28;20496;-69
2023/05/11 06:06:50;;;;;;;13.25;10.40;;;13.50;83.30;;;;;;5031773;28;20045;-71
2023/05/11 06:09:16;;;;;;;12.00;9.48;;;13.50;83.20;;;;;;5016761;28;20046;-69
2023/05/11 06:11:42;;;;;;;10.63;8.48;;;13.50;83.20;;;;;;5013510;28;20065;-70
2023/05/11 06:14:07;;;;;;;12.18;8.43;;;13.50;83.00;;;;;;5013328;28;20050;-70
2023/05/11 06:16:33;;;;;;;17.60;12.60;;;13.60;83.00;;;;;;5026015;28;20041;-70
2023/05/11 06:18:59;;;;;;;14.32;10.88;;;13.60;83.10;;;;;;5024566;28;20041;-70
2023/05/11 06:21:24;;;;;;;13.77;11.15;;;13.60;83.00;;;;;;5019495;28;20076;-70
2023/05/11 06:23:51;;;;;;;11.80;9.27;;;13.50;82.90;;;;;;5013263;28;20041;-70
2023/05/11 06:26:16;;;;;;;11.18;8.38;;;13.60;83.00;;;;;;5025403;28;20061;-70
2023/05/11 06:28:42;;;;;;;11.55;8.52;;;13.60;83.10;;;;;;5032921;28;20048;-71
2023/05/11 06:31:08;;;;;;;13.40;10.20;;;13.60;83.00;;;;;;5032833;28;20151;-71
2023/05/11 06:33:34;;;;;;;13.63;9.95;;;13.60;83.00;;;;;;5028099;28;20392;-71
2023/05/11 06:36:04;;;;;;;12.27;10.00;;;13.60;82.90;;;;;;5014040;28;20034;-71
2023/05/11 06:38:30;;;;;;;12.48;9.88;;;13.60;82.80;;;;;;5013618;28;20037;-71
2023/05/11 06:40:55;;;;;;;9.35;7.25;;;13.60;82.90;;;;;;5012898;28;20129;-71
2023/05/11 06:43:22;;;;;;;9.00;7.20;;;13.60;82.90;;;;;;5004440;28;20046;-71
2023/05/11 06:45:48;;;;;;;12.85;10.15;;;13.60;82.90;;;;;;5028973;28;20050;-71
2023/05/11 06:48:14;;;;;;;13.27;10.43;;;13.60;83.00;;;;;;5031874;28;20049;-71
2023/05/11 06:50:40;;;;;;;11.90;10.27;;;13.60;82.90;;;;;;5032569;28;20091;-71
2023/05/11 06:53:06;;;;;;;10.63;8.90;;;13.60;83.00;;;;;;5031730;28;20045;-71
2023/05/11 06:55:32;;;;;;;11.52;9.07;;;13.60;83.00;;;;;;5016033;28;20091;-71
2023/05/11 06:57:57;;;;;;;10.63;9.05;;;13.60;82.90;;;;;;5032138;28;20029;-71
2023/05/11 07:00:23;;;;;;;9.35;7.80;;;13.50;82.80;;;;;;5032362;28;20034;-71
2023/05/11 07:02:49;;;;;;;11.30;9.18;;;13.50;82.90;;;;;;5024724;28;20052;-71
2023/05/11 07:05:15;;;;;;;9.65;7.90;;;13.50;83.10;;;;;;5012462;28;20053;-71
2023/05/11 07:07:40;;;;;;;9.93;8.27;;;13.50;83.20;;;;;;5013655;28;20045;-71
2023/05/11 07:10:07;;;;;;;10.55;7.93;;;13.40;83.30;;;;;;5032321;28;20041;-71
2023/05/11 07:12:32;;;;;;;11.93;7.72;;;13.40;83.50;;;;;;5029085;28;20046;-71
2023/05/11 07:14:58;;;;;;;9.65;7.82;;;13.40;83.60;;;;;;5010141;28;20041;-71
2023/05/11 07:17:24;;;;;;;12.13;8.85;;;13.40;83.70;;;;;;4999617;28;20090;-71
2023/05/11 07:19:54;;;;;;;10.27;8.05;;;13.40;83.70;;;;;;5013439;28;20493;-71
2023/05/11 07:22:20;;;;;;;8.90;6.88;;;13.40;83.90;;;;;;5015235;28;20037;-71
2023/05/11 07:24:45;;;;;;;9.35;6.80;;;13.30;84.10;;;;;;5015158;28;20055;-71
2023/05/11 07:27:11;;;;;;;10.20;6.93;;;13.30;84.20;;;;;;5015743;28;20041;-71
2023/05/11 07:29:37;;;;;;;7.53;5.10;;;13.30;84.40;;;;;;5031227;28;20480;-71
2023/05/11 07:32:03;;;;;;;7.65;5.35;;;13.30;84.50;;;;;;5031019;28;20076;-71
2023/05/11 07:34:28;;;;;;;6.82;4.65;;;13.20;84.60;;;;;;5016727;28;20049;-71
2023/05/11 07:36:54;;;;;;;7.82;4.88;;;13.20;84.80;;;;;;5031817;28;20053;-71
2023/05/11 07:39:20;;;;;;;7.22;5.03;;;13.20;84.90;;;;;;5001434;28;20121;-71
2023/05/11 07:41:46;;;;;;;6.35;4.45;;;13.20;85.10;;;;;;4995680;28;20068;-72
2023/05/11 07:44:11;;;;;;;6.85;4.80;;;13.20;85.20;;;;;;5030068;28;20049;-71
2023/05/11 07:46:37;;;;;;;6.25;4.25;;;13.20;85.40;;;;;;5031647;28;20073;-72
2023/05/11 07:49:03;;;;;;;7.20;4.57;;;13.10;85.50;;;;;;5020173;28;20038;-71
2023/05/11 07:51:29;;;;;;;6.78;4.45;;;13.10;85.50;;;;;;5012020;28;20037;-71
2023/05/11 07:53:54;;;;;;;6.35;4.35;;;13.10;85.60;;;;;;5026771;28;20443;-72
2023/05/11 07:56:20;;;;;;;5.32;3.55;;;13.10;85.60;;;;;;5031623;28;20044;-72
2023/05/11 07:58:46;;;;;;;5.43;3.78;;;13.10;85.70;;;;;;5022871;28;20137;-71
2023/05/11 08:01:12;;;;;;;6.47;4.50;;;13.10;85.70;;;;;;5012945;28;20125;-71
2023/05/11 08:03:37;;;;;;;7.50;4.68;;;13.10;85.80;;;;;;5008024;28;20133;-71
2023/05/11 08:06:04;;;;;;;7.38;4.97;;;13.10;86.00;;;;;;5031463;28;20072;-71
2023/05/11 08:08:30;;;;;;;8.23;5.53;;;13.10;86.20;;;;;;5014560;28;20041;-71
2023/05/11 08:10:55;;;;;;;9.45;6.28;;;13.10;86.20;;;;;;4998853;28;20171;-71
2023/05/11 08:13:21;;;;;;;10.00;7.25;;;13.10;86.40;;;;;;5014224;28;20045;-71
2023/05/11 08:15:47;;;;;;;10.68;6.93;;;13.10;86.60;;;;;;5031349;28;20396;-71
2023/05/11 08:18:13;;;;;;;11.13;7.50;;;13.10;86.70;;;;;;5029809;28;20038;-71
2023/05/11 08:20:40;;;;;;;8.75;6.40;;;13.10;86.80;;;;;;5015418;28;20038;-71
2023/05/11 08:23:07;;;;;;;14.20;8.43;;;13.20;87.00;;;;;;5023410;28;20045;-72
2023/05/11 08:25:33;;;;;;;11.52;7.70;;;13.20;87.20;;;;;;5035066;28;20504;-71
2023/05/11 08:27:59;;;;;;;14.40;9.02;;;13.20;87.40;;;;;;5017090;28;20045;-71
2023/05/11 08:30:25;;;;;;;15.95;8.93;;;13.20;87.40;;;;;;5015650;28;20050;-71
2023/05/11 08:32:51;;;;;;;16.10;9.35;;;13.20;87.50;;;;;;5020991;28;20038;-71
2023/05/11 08:35:17;;;;;;;15.10;9.23;;;13.30;88.20;;;;;;5018671;28;20040;-71
2023/05/11 08:37:43;;;;;;;17.13;9.18;;;13.30;87.90;;;;;;5035405;28;20451;-71
2023/05/11 08:40:12;;;;;;;16.42;9.30;;;13.30;88.10;;;;;;5016039;28;20125;-71
2023/05/11 08:42:41;;;;;;;15.15;8.75;;;13.40;88.30;;;;;;5015646;28;20115;-71
2023/05/11 08:45:09;;;;;;;13.65;8.63;;;13.40;88.40;;;;;;4999229;28;20069;-71
2023/05/11 08:47:35;;;;;;;13.55;7.90;;;13.40;88.50;;;;;;5015523;28;20132;-71
2023/05/11 08:50:01;;;;;;;11.15;7.30;;;13.40;88.60;;;;;;5017044;28;20102;-71
2023/05/11 08:52:27;;;;;;;13.60;7.55;;;13.50;88.70;;;;;;5012322;28;20497;-71
2023/05/11 08:54:53;;;;;;;9.77;5.85;;;13.50;88.70;;;;;;5015194;28;20046;-71
2023/05/11 08:57:18;;;;;;;9.52;6.05;;;13.60;88.70;;;;;;5015088;28;20073;-71
2023/05/11 08:59:48;;;;;;;10.10;6.10;;;13.60;88.70;;;;;;5015208;28;20041;-71
2023/05/11 09:02:17;;;;;;;10.02;6.38;;;13.70;88.80;;;;;;5015301;28;20373;-71
2023/05/11 09:04:44;;;;;;;10.43;6.40;;;13.70;88.80;;;;;;5033965;28;20041;-71
2023/05/11 09:07:11;;;;;;;8.27;5.53;;;13.70;88.70;;;;;;5035007;28;20435;-71
2023/05/11 09:09:38;;;;;;;10.60;6.63;;;13.80;88.70;;;;;;5018195;28;20049;-71
2023/05/11 09:12:04;;;;;;;9.73;6.25;;;13.80;88.60;;;;;;5018110;28;20037;-71
2023/05/11 09:14:30;;;;;;;10.68;6.38;;;13.90;88.50;;;;;;5045441;28;20077;-71
2023/05/11 09:16:57;;;;;;;8.65;5.68;;;13.90;88.40;;;;;;5036743;28;20069;-71
2023/05/11 09:19:23;;;;;;;9.75;5.75;;;14.00;88.40;;;;;;5022449;28;20495;-72
2023/05/11 09:21:51;;;;;;;9.63;6.03;;;14.00;88.40;;;;;;5017591;28;20073;-71
2023/05/11 09:24:19;;;;;;;8.25;5.25;;;14.00;88.40;;;;;;5014521;28;20461;-71
2023/05/11 09:26:45;;;;;;;8.23;5.30;;;14.10;88.30;;;;;;4997684;28;20132;-71
2023/05/11 09:29:11;;;;;;;8.50;5.78;;;14.20;88.20;;;;;;5006626;28;20600;-71
2023/05/11 09:31:45;;;;;;;8.90;5.00;;;14.20;88.00;;;;;;5009152;28;20120;-72
2023/05/11 09:34:16;;;;;;;6.82;4.93;;;14.30;88.00;;;;;;5014425;28;20056;-71
2023/05/11 09:36:44;;;;;;;8.50;5.40;;;14.30;87.80;;;;;;5014242;28;20121;-73
2023/05/11 09:39:11;;;;;;;6.65;5.10;;;14.40;87.80;;;;;;4998411;28;20038;-71
2023/05/11 09:41:37;;;;;;;6.88;5.20;;;14.40;87.70;;;;;;5022170;28;20421;-72
2023/05/11 09:44:09;;;;;;;6.18;4.55;;;14.50;87.60;;;;;;5032615;28;20120;-72
2023/05/11 09:46:40;;;;;;;6.38;4.53;;;14.70;87.60;;;;;;5016590;28;20057;-71
2023/05/11 09:49:07;;;;;;;5.85;4.00;;;14.80;87.50;;;;;;5031084;28;20048;-72
2023/05/11 09:51:35;;;;;;;5.72;3.83;;;14.90;87.30;;;;;;5020795;28;20053;-71
2023/05/11 09:54:15;;;;;;;6.38;4.38;;;15.00;87.10;;;;;;5022005;28;20497;-71
2023/05/11 09:56:57;;;;;;;5.40;3.70;;;15.00;86.80;;;;;;5029952;28;20044;-71
2023/05/11 09:59:37;;;;;;;4.82;3.10;;;15.20;86.80;;;;;;5016785;28;20088;-71
2023/05/11 10:02:23;;;;;;;4.90;3.63;;;15.20;85.80;;;;;;4996850;28;20068;-72
2023/05/11 10:04:50;;;;;;;5.53;3.72;;;15.30;85.30;;;;;;5013663;28;20121;-72
2023/05/11 10:07:32;;;;;;;4.40;3.38;;;15.40;85.30;;;;;;5013726;28;20052;-72
2023/05/11 10:10:08;;;;;;;4.60;3.40;;;15.50;84.70;;;;;;5013542;28;20034;-72
2023/05/11 10:12:37;;;;;;;5.32;3.63;;;15.60;84.60;;;;;;5026798;28;20042;-72
2023/05/11 10:15:10;;;;;;;5.25;3.80;;;15.60;84.20;;;;;;5033254;28;20046;-72
2023/05/11 10:17:36;;;;;;;4.72;3.03;;;15.70;83.70;;;;;;5032502;28;20033;-72
2023/05/11 10:20:04;;;;;;;4.43;3.17;;;15.80;83.70;;;;;;5033182;28;20172;-73
2023/05/11 10:22:30;;;;;;;5.10;2.88;;;15.90;83.10;;;;;;5033421;28;20132;-73
2023/05/11 10:24:57;;;;;;;5.05;3.10;;;15.90;82.50;;;;;;5033098;28;20079;-72
2023/05/11 10:27:23;;;;;;;3.65;2.22;;;16.00;82.60;;;;;;5032774;28;20180;-73
2023/05/11 10:29:50;;;;;;;3.30;2.28;;;16.10;82.90;;;;;;5032482;28;20046;-73
2023/05/11 10:32:18;;;;;;;2.45;1.55;;;16.20;82.40;;;;;;5032807;28;20507;-73
2023/05/11 10:34:47;;;;;;;2.33;1.52;;;16.30;81.70;;;;;;5032963;28;20056;-73
2023/05/11 10:37:14;;;;;;;2.00;1.20;;;16.40;80.90;;;;;;5032811;28;20119;-72
2023/05/11 10:39:41;;;;;;;2.80;1.30;;;16.50;81.00;;;;;;5016187;28;20380;-73
2023/05/11 10:42:36;;;;;;;1.77;1.30;;;16.50;80.90;;;;;;5012963;28;20129;-72
2023/05/11 10:45:12;;;;;;;1.73;1.13;;;16.70;81.40;;;;;;5003491;28;20157;-73
2023/05/11 10:47:57;;;;;;;1.92;1.23;;;16.80;80.50;;;;;;5013191;28;20159;-72
2023/05/11 10:50:31;;;;;;;;;;;16.80;80.00;;;;;;5013656;28;20033;-72
2023/05/11 10:53:23;;;;;;;2.53;1.75;;;16.90;79.90;;;;;;5015857;28;19921;-73
2023/05/11 10:56:13;;;;;;;1.00;0.90;;;16.90;79.00;;;;;;5029967;28;20049;-72
2023/05/11 10:58:54;;;;;;;2.20;1.20;;;17.00;77.70;;;;;;5019683;28;20512;-73
2023/05/11 11:01:34;;;;;;;2.58;1.05;;;16.90;77.80;;;;;;5032471;28;20033;-72
2023/05/11 11:04:04;;;;;;;1.40;0.88;;;17.00;76.90;;;;;;5021836;28;21060;-72
2023/05/11 11:06:31;;;;;;;1.17;0.90;;;16.90;76.80;;;;;;5020780;28;20041;-72
2023/05/11 11:08:57;;;;;;;3.35;1.10;;;17.00;78.00;;;;;;5023299;28;20107;-72
2023/05/11 11:11:34;;;;;;;1.27;0.82;;;17.10;78.50;;;;;;5024434;28;20041;-72
2023/05/11 11:14:04;;;;;;;1.55;0.90;;;17.20;78.50;;;;;;5021660;28;20111;-72
2023/05/11 11:16:33;;;;;;;1.10;0.70;;;17.20;77.50;;;;;;5021533;28;20428;-72
2023/05/11 11:19:30;;;;;;;1.52;0.88;;;17.30;76.80;;;;;;5020979;28;20030;-72
2023/05/11 11:21:56;;;;;;;3.20;1.35;;;17.40;75.80;;;;;;5022612;28;20045;-72
2023/05/11 11:24:37;;;;;;;1.85;1.27;;;17.50;76.90;;;;;;5020496;28;20072;-72
2023/05/11 11:27:05;;;;;;;2.70;1.40;;;17.50;75.00;;;;;;5020818;28;20124;-68
2023/05/11 11:29:31;;;;;;;2.35;1.67;;;17.50;74.70;;;;;;5020075;28;20053;-67
2023/05/11 11:32:18;;;;;;;2.58;1.50;;;17.50;74.50;;;;;;5019479;28;20037;-68
2023/05/11 11:34:48;;;;;;;1.40;1.20;;;17.50;73.80;;;;;;5020896;28;20059;-67
2023/05/11 11:37:15;;;;;;;2.03;1.55;;;17.50;74.70;;;;;;5021701;28;20081;-72
2023/05/11 11:39:41;;;;;;;2.97;2.20;;;17.60;74.40;;;;;;5019729;28;20470;-74
2023/05/11 11:42:35;;;;;;;1.95;1.42;;;17.70;75.00;;;;;;5020666;28;20056;-73
2023/05/11 11:45:27;;;;;;;2.72;2.08;;;17.70;73.80;;;;;;5015414;28;20115;-72
2023/05/11 11:48:14;;;;;;;4.07;2.40;;;17.70;72.60;;;;;;5007783;28;20463;-67
2023/05/11 11:50:41;;;;;;;3.03;1.73;;;17.70;73.30;;;;;;5018748;28;20470;-73
2023/05/11 11:53:12;;;;;;;4.03;2.40;;;17.60;72.40;;;;;;5018908;28;20409;-73
2023/05/11 11:55:48;;;;;;;3.28;2.42;;;17.60;72.60;;;;;;5017896;28;20038;-72
2023/05/11 11:58:43;;;;;;;3.67;2.10;;;17.60;72.90;;;;;;5018537;28;20045;-67
2023/05/11 12:01:13;;;;;;;3.78;2.47;;;17.60;74.80;;;;;;5004424;28;20044;-71
2023/05/11 12:03:40;;;;;;;3.45;2.67;;;17.60;75.20;;;;;;5018843;28;20041;-72
2023/05/11 12:06:08;;;;;;;4.13;3.10;;;17.60;74.40;;;;;;5019008;28;20469;-73
2023/05/11 12:08:35;;;;;;;3.60;2.90;;;17.60;74.30;;;;;;5003762;28;20057;-68
2023/05/11 12:11:02;;;;;;;4.07;3.13;;;17.60;75.00;;;;;;5000169;28;20049;-68
2023/05/11 12:13:28;;;;;;;4.55;3.80;;;17.70;74.90;;;;;;5020211;28;20061;-67
2023/05/11 12:16:13;;;;;;;5.60;4.80;;;17.70;74.70;;;;;;5003631;28;20029;-73
2023/05/11 12:18:40;;;;;;;5.35;4.30;;;17.80;74.50;;;;;;5019919;28;20391;-67
2023/05/11 12:21:18;;;;;;;6.22;4.70;;;17.80;74.10;;;;;;5020065;28;21497;-68
2023/05/11 12:23:57;;;;;;;5.72;4.72;;;17.80;73.30;;;;;;5019280;28;20431;-66
2023/05/11 12:26:24;;;;;;;6.38;5.32;;;17.80;73.20;;;;;;5022495;28;20046;-73
2023/05/11 12:28:51;;;;;;;8.10;5.70;;;17.80;73.50;;;;;;5021456;28;20700;-71
2023/05/11 12:31:18;;;;;;;7.97;5.60;;;17.80;73.60;;;;;;5005422;28;20488;-71
2023/05/11 12:33:50;;;;;;;7.45;5.90;;;17.80;73.70;;;;;;5019455;28;20046;-67
2023/05/11 12:36:17;;;;;;;7.10;6.40;;;17.80;74.00;;;;;;5020189;28;20038;-72
2023/05/11 12:38:43;;;;;;;7.00;5.70;;;17.80;73.90;;;;;;5022443;28;20076;-72
2023/05/11 12:41:10;;;;;;;6.70;5.43;;;17.90;73.90;;;;;;5022125;28;20033;-72
2023/05/11 12:43:36;;;;;;;8.15;5.68;;;17.90;73.50;;;;;;5021113;28;20535;-67
2023/05/11 12:46:02;;;;;;;7.57;5.68;;;17.90;73.80;;;;;;5018701;28;20045;-71